createdAt,value
2024-01-11T00:02:11.219Z,11.45
2024-01-11T00:04:41.390Z,11.30
2024-01-11T00:07:11.478Z,12.00
2024-01-11T00:09:42.452Z,15.15
2024-01-11T00:12:14.218Z,10.85
2024-01-11T00:14:43.139Z,13.02
2024-01-11T00:17:11.567Z,16.92
2024-01-11T00:19:40.513Z,12.52
2024-01-11T00:22:08.870Z,13.35
2024-01-11T00:24:39.607Z,13.48
2024-01-11T00:27:12.884Z,14.02
2024-01-11T00:29:41.613Z,13.02
2024-01-11T00:32:09.889Z,14.00
2024-01-11T00:34:38.478Z,8.50
2024-01-11T00:37:09.736Z,12.57
2024-01-11T00:39:37.838Z,11.98
2024-01-11T00:42:06.633Z,9.50
2024-01-11T00:44:36.354Z,10.82
2024-01-11T00:47:08.106Z,12.13
2024-01-11T00:49:37.047Z,9.18
2024-01-11T00:52:06.097Z,11.02
2024-01-11T00:54:34.263Z,15.90
2024-01-11T00:57:02.346Z,9.82
2024-01-11T00:59:32.221Z,8.52
2024-01-11T01:02:02.347Z,9.25
2024-01-11T01:04:30.526Z,13.10
2024-01-11T01:06:58.612Z,10.52
2024-01-11T01:09:26.813Z,14.75
2024-01-11T01:11:55.090Z,14.30
2024-01-11T01:14:23.272Z,14.48
2024-01-11T01:16:51.561Z,11.00
2024-01-11T01:23:59.984Z,11.95
2024-01-11T01:26:54.467Z,13.93
2024-01-11T01:29:23.016Z,13.80
2024-01-11T01:31:51.107Z,13.57
2024-01-11T01:34:20.198Z,23.23
2024-01-11T01:36:48.337Z,13.57
2024-01-11T01:39:18.198Z,14.02
2024-01-11T01:41:46.187Z,10.13
2024-01-11T01:44:14.332Z,12.52
2024-01-11T01:46:43.610Z,10.82
2024-01-11T01:49:14.126Z,15.35
2024-01-11T01:51:42.577Z,14.38
2024-01-11T01:54:10.815Z,15.80
2024-01-11T01:56:40.449Z,11.35
2024-01-11T01:59:09.542Z,12.60
2024-01-11T02:01:38.012Z,12.73
2024-01-11T02:04:06.865Z,16.27
2024-01-11T02:06:36.526Z,11.55
2024-01-11T02:09:05.739Z,9.85
2024-01-11T02:11:35.552Z,15.82
2024-01-11T02:14:06.010Z,16.30
2024-01-11T02:16:34.976Z,15.73
2024-01-11T02:19:03.395Z,13.63
2024-01-11T02:21:33.313Z,12.70
2024-01-11T02:24:08.287Z,14.18
2024-01-11T02:26:36.873Z,16.23
2024-01-11T02:29:05.311Z,15.50
2024-01-11T02:31:37.290Z,12.23
2024-01-11T02:34:06.162Z,18.77
2024-01-11T02:36:34.581Z,15.20
2024-01-11T02:39:03.360Z,19.55
2024-01-11T02:41:34.834Z,15.60
2024-01-11T02:44:03.981Z,14.55
2024-01-11T02:46:32.966Z,12.75
2024-01-11T02:49:01.647Z,14.50
2024-01-11T02:51:29.883Z,20.48
2024-01-11T02:53:59.176Z,12.93
2024-01-11T02:56:27.499Z,14.73
2024-01-11T02:58:58.144Z,14.35
2024-01-11T03:01:26.602Z,17.40
2024-01-11T03:03:54.787Z,14.07
2024-01-11T03:06:23.937Z,14.75
2024-01-11T03:08:52.032Z,14.07
2024-01-11T03:11:20.376Z,17.38
2024-01-11T03:13:48.569Z,13.93
2024-01-11T03:16:17.950Z,18.48
2024-01-11T03:18:46.166Z,16.00
2024-01-11T03:21:14.607Z,12.75
2024-01-11T03:23:42.758Z,15.13
2024-01-11T03:26:15.559Z,14.68
2024-01-11T03:28:43.798Z,17.80
2024-01-11T03:31:12.844Z,14.90
2024-01-11T03:33:42.854Z,13.32
2024-01-11T03:36:12.063Z,15.20
2024-01-11T03:38:40.818Z,23.38
2024-01-11T03:41:12.734Z,17.73
2024-01-11T03:43:41.028Z,20.38
2024-01-11T03:46:08.163Z,16.48
2024-01-11T03:48:37.189Z,19.27
2024-01-11T03:51:09.517Z,19.02
2024-01-11T03:53:39.284Z,18.20
2024-01-11T03:56:07.761Z,14.40
2024-01-11T03:58:40.465Z,16.63
2024-01-11T04:01:11.830Z,22.33
2024-01-11T04:03:40.289Z,13.75
2024-01-11T04:06:10.345Z,16.60
2024-01-11T04:08:38.732Z,13.68
2024-01-11T04:11:08.157Z,15.73
2024-01-11T04:13:40.130Z,21.23
2024-01-11T04:16:08.956Z,21.35
2024-01-11T04:18:37.248Z,14.93
2024-01-11T04:21:06.054Z,17.15
2024-01-11T04:23:38.759Z,19.95
2024-01-11T04:26:06.895Z,19.02
2024-01-11T04:28:34.882Z,12.82
2024-01-11T04:31:02.948Z,12.70
2024-01-11T04:33:31.166Z,17.77
2024-01-11T04:35:59.595Z,11.75
2024-01-11T04:38:27.755Z,17.20
2024-01-11T04:40:57.638Z,18.15
2024-01-11T04:43:25.763Z,16.48
2024-01-11T04:45:54.200Z,15.15
2024-01-11T04:48:22.378Z,20.73
2024-01-11T04:50:50.881Z,18.98
2024-01-11T04:53:19.677Z,17.70
2024-01-11T04:55:47.794Z,19.60
2024-01-11T04:58:17.561Z,14.00
2024-01-11T05:00:45.634Z,12.68
2024-01-11T05:03:13.773Z,17.30
2024-01-11T05:05:42.151Z,16.35
2024-01-11T05:08:10.342Z,16.45
2024-01-11T05:10:38.498Z,17.90
2024-01-11T05:13:06.625Z,20.67
2024-01-11T05:15:36.882Z,17.88
2024-01-11T05:18:05.890Z,15.18
2024-01-11T05:20:34.281Z,14.73
2024-01-11T05:23:02.910Z,18.08
2024-01-11T05:25:34.742Z,16.88
2024-01-11T05:28:03.636Z,17.35
2024-01-11T05:30:32.053Z,18.70
2024-01-11T05:33:02.232Z,20.95
2024-01-11T05:35:30.478Z,20.73
2024-01-11T05:37:58.926Z,23.48
2024-01-11T05:40:27.148Z,23.73
2024-01-11T05:42:55.225Z,15.93
2024-01-11T05:45:29.142Z,18.67
2024-01-11T05:48:07.213Z,16.52
2024-01-11T05:50:35.437Z,24.10
2024-01-11T05:53:03.984Z,21.00
2024-01-11T05:55:32.178Z,25.67
2024-01-11T05:58:00.260Z,25.50
2024-01-11T06:00:28.422Z,20.08
2024-01-11T06:02:56.548Z,20.05
2024-01-11T06:05:26.425Z,19.13
2024-01-11T06:07:54.535Z,15.82
2024-01-11T06:10:22.684Z,22.13
2024-01-11T06:12:50.880Z,21.40
2024-01-11T06:15:19.502Z,20.98
2024-01-11T06:17:47.734Z,19.73
2024-01-11T06:20:16.270Z,15.15
2024-01-11T06:22:46.398Z,24.20
2024-01-11T06:25:16.103Z,21.95
2024-01-11T06:27:44.931Z,20.65
2024-01-11T06:30:14.075Z,15.77
2024-01-11T06:32:42.204Z,16.95
2024-01-11T06:35:10.786Z,18.52
2024-01-11T06:37:39.925Z,21.25
2024-01-11T06:40:10.395Z,20.67
2024-01-11T06:42:38.435Z,27.33
2024-01-11T06:45:07.820Z,23.08
2024-01-11T06:47:36.062Z,19.90
2024-01-11T06:50:04.760Z,25.25
2024-01-11T06:52:32.822Z,27.55
2024-01-11T06:55:02.116Z,20.52
2024-01-11T06:57:31.550Z,25.75
2024-01-11T06:59:59.724Z,24.38
2024-01-11T07:02:28.024Z,17.50
2024-01-11T07:04:56.471Z,20.63
2024-01-11T07:07:24.603Z,28.02
2024-01-11T07:09:56.223Z,27.45
2024-01-11T07:12:24.477Z,28.50
2024-01-11T07:14:54.099Z,26.13
2024-01-11T07:17:24.056Z,20.92
2024-01-11T07:19:52.102Z,27.17
2024-01-11T07:22:20.324Z,19.42
2024-01-11T07:24:48.406Z,21.63
2024-01-11T07:27:16.995Z,23.50
2024-01-11T07:29:45.143Z,39.72
2024-01-11T07:32:14.796Z,37.40
2024-01-11T07:34:43.025Z,28.10
2024-01-11T07:37:11.514Z,29.35
2024-01-11T07:39:39.634Z,34.35
2024-01-11T07:42:09.133Z,27.45
2024-01-11T07:44:37.333Z,31.83
2024-01-11T07:47:05.716Z,36.65
2024-01-11T07:49:35.110Z,30.40
2024-01-11T07:52:03.431Z,29.88
2024-01-11T07:54:33.212Z,33.17
2024-01-11T07:57:01.314Z,38.75
2024-01-11T07:59:29.365Z,35.72
2024-01-11T08:01:57.684Z,40.92
2024-01-11T08:04:25.947Z,33.70
2024-01-11T08:06:55.482Z,40.67
2024-01-11T08:09:23.572Z,29.60
2024-01-11T08:11:52.755Z,29.00
2024-01-11T08:14:21.949Z,27.60
2024-01-11T08:16:50.173Z,31.88
2024-01-11T08:19:18.467Z,30.67
2024-01-11T08:21:46.648Z,37.30
2024-01-11T08:24:16.065Z,35.08
2024-01-11T08:26:44.852Z,37.85
2024-01-11T08:29:13.912Z,30.20
2024-01-11T08:31:44.955Z,34.88
2024-01-11T08:34:13.423Z,35.03
2024-01-11T08:36:41.612Z,33.00
2024-01-11T08:39:12.689Z,36.47
2024-01-11T08:41:42.527Z,35.35
2024-01-11T08:44:12.113Z,48.95
2024-01-11T08:46:40.320Z,44.67
2024-01-11T08:49:08.896Z,35.83
2024-01-11T08:51:37.216Z,31.23
2024-01-11T08:54:10.087Z,36.78
2024-01-11T08:56:38.437Z,35.60
2024-01-11T08:59:10.074Z,39.30
2024-01-11T09:01:38.509Z,38.72
2024-01-11T09:04:07.494Z,38.88
2024-01-11T09:06:35.771Z,36.17
2024-01-11T09:09:03.927Z,32.08
2024-01-11T09:11:33.094Z,31.95
2024-01-11T09:14:01.220Z,30.33
2024-01-11T09:16:31.014Z,33.38
2024-01-11T09:19:01.281Z,29.90
2024-01-11T09:21:29.414Z,31.10
2024-01-11T09:23:57.483Z,29.25
2024-01-11T09:26:25.719Z,27.48
2024-01-11T09:28:53.792Z,29.65
2024-01-11T09:31:21.876Z,29.08
2024-01-11T09:33:51.745Z,30.15
2024-01-11T09:36:20.587Z,33.33
2024-01-11T09:38:49.976Z,24.65
2024-01-11T09:41:20.122Z,30.63
2024-01-11T09:43:52.579Z,29.30
2024-01-11T09:46:22.089Z,31.55
2024-01-11T09:48:52.854Z,30.55
2024-01-11T09:51:21.262Z,27.52
2024-01-11T09:53:52.210Z,27.58
2024-01-11T09:56:20.922Z,32.38
2024-01-11T09:58:51.301Z,26.08
2024-01-11T10:01:20.042Z,30.38
2024-01-11T10:03:48.400Z,31.27
2024-01-11T10:06:19.886Z,22.95
2024-01-11T10:08:48.226Z,28.33
2024-01-11T10:11:16.759Z,30.98
2024-01-11T10:13:46.240Z,30.75
2024-01-11T10:16:16.646Z,25.88
2024-01-11T10:18:45.618Z,31.42
2024-01-11T10:21:13.843Z,27.77
2024-01-11T10:23:44.093Z,24.17
2024-01-11T10:26:12.185Z,25.40
2024-01-11T10:28:41.430Z,20.83
2024-01-11T10:31:09.611Z,26.00
2024-01-11T10:33:38.893Z,33.13
2024-01-11T10:36:08.879Z,25.02
2024-01-11T10:38:39.615Z,22.00
2024-01-11T10:41:11.065Z,22.85
2024-01-11T10:43:40.298Z,24.88
2024-01-11T10:46:09.951Z,28.67
2024-01-11T10:48:41.179Z,26.90
2024-01-11T10:51:17.286Z,21.60
2024-01-11T10:53:47.524Z,27.63
2024-01-11T10:56:18.221Z,23.52
2024-01-11T10:58:47.680Z,26.27
2024-01-11T11:01:16.415Z,21.98
2024-01-11T11:03:46.080Z,27.95
2024-01-11T11:06:14.775Z,27.35
2024-01-11T11:08:44.368Z,21.90
2024-01-11T11:11:15.129Z,26.80
2024-01-11T11:13:48.797Z,24.05
2024-01-11T11:16:17.447Z,30.27
2024-01-11T11:18:45.834Z,29.67
2024-01-11T11:21:14.959Z,25.73
2024-01-11T11:23:43.167Z,30.25
2024-01-11T11:26:17.799Z,26.42
2024-01-11T11:28:49.993Z,31.38
2024-01-11T11:31:36.933Z,29.30
2024-01-11T11:34:07.459Z,29.60
2024-01-11T11:36:36.445Z,30.92
2024-01-11T11:39:05.354Z,33.08
2024-01-11T11:41:34.310Z,31.52
2024-01-11T11:44:07.695Z,31.30
2024-01-11T11:46:36.282Z,22.75
2024-01-11T11:49:05.090Z,29.23
2024-01-11T11:51:35.187Z,24.55
2024-01-11T11:54:04.739Z,31.08
2024-01-11T11:56:33.164Z,23.23
2024-01-11T11:59:04.057Z,21.40
2024-01-11T12:01:34.780Z,20.92
2024-01-11T12:04:03.904Z,25.80
2024-01-11T12:06:32.439Z,23.85
2024-01-11T12:09:00.806Z,30.73
2024-01-11T12:11:29.893Z,24.33
2024-01-11T12:13:59.154Z,31.17
2024-01-11T12:16:28.697Z,24.80
2024-01-11T12:18:58.550Z,23.00
2024-01-11T12:21:28.239Z,20.08
2024-01-11T12:23:57.069Z,20.92
2024-01-11T12:26:26.311Z,22.40
2024-01-11T12:28:55.079Z,26.20
2024-01-11T12:31:24.529Z,31.58
2024-01-11T12:33:53.543Z,28.08
2024-01-11T12:36:23.194Z,22.23
2024-01-11T12:38:53.242Z,18.83
2024-01-11T12:41:24.307Z,23.48
2024-01-11T12:43:53.918Z,25.33
2024-01-11T12:46:22.229Z,29.00
2024-01-11T12:48:51.282Z,26.77
2024-01-11T12:51:22.540Z,24.95
2024-01-11T12:53:54.944Z,22.55
2024-01-11T12:56:24.458Z,21.50
2024-01-11T12:58:53.286Z,30.65
2024-01-11T13:01:22.152Z,20.63
2024-01-11T13:03:51.319Z,29.48
2024-01-11T13:06:20.875Z,20.73
2024-01-11T13:08:49.374Z,30.48
2024-01-11T13:11:22.223Z,24.77
2024-01-11T13:13:50.475Z,25.73
2024-01-11T13:16:20.317Z,25.13
2024-01-11T13:18:48.864Z,26.30
2024-01-11T13:21:19.503Z,34.47
2024-01-11T13:23:48.007Z,32.95
2024-01-11T13:26:16.511Z,22.75
2024-01-11T13:28:46.117Z,32.15
2024-01-11T13:31:14.221Z,29.15
2024-01-11T13:33:42.780Z,31.60
2024-01-11T13:36:11.027Z,25.25
2024-01-11T13:38:39.399Z,28.63
2024-01-11T13:41:09.490Z,35.38
2024-01-11T13:43:38.293Z,32.88
2024-01-11T13:46:07.771Z,37.33
2024-01-11T13:48:36.602Z,33.70
2024-01-11T13:51:05.509Z,33.08
2024-01-11T13:53:34.924Z,30.58
2024-01-11T13:56:03.500Z,36.53
2024-01-11T13:58:32.283Z,28.30
2024-01-11T14:01:00.766Z,32.33
2024-01-11T14:03:30.611Z,25.20
2024-01-11T14:05:59.286Z,30.25
2024-01-11T14:08:27.989Z,38.45
2024-01-11T14:10:56.346Z,29.65
2024-01-11T14:13:24.653Z,30.75
2024-01-11T14:15:53.123Z,37.63
2024-01-11T14:18:22.336Z,31.58
2024-01-11T14:20:52.264Z,38.05
2024-01-11T14:23:20.993Z,31.60
2024-01-11T14:25:50.213Z,35.75
2024-01-11T14:28:18.408Z,34.67
2024-01-11T14:30:47.446Z,32.47
2024-01-11T14:33:16.030Z,31.60
2024-01-11T14:35:44.296Z,33.42
2024-01-11T14:38:13.960Z,44.40
2024-01-11T14:40:42.961Z,29.08
2024-01-11T14:43:11.239Z,32.10
2024-01-11T14:45:39.497Z,36.58
2024-01-11T14:48:08.397Z,35.45
2024-01-11T14:50:36.540Z,32.40
2024-01-11T14:53:06.549Z,30.17
2024-01-11T14:55:39.211Z,34.10
2024-01-11T14:58:08.265Z,40.83
2024-01-11T15:00:36.468Z,33.30
2024-01-11T15:03:05.952Z,34.97
2024-01-11T15:05:35.412Z,33.75
2024-01-11T15:08:04.447Z,40.70
2024-01-11T15:10:33.448Z,43.83
2024-01-11T15:13:03.486Z,27.73
2024-01-11T15:15:32.015Z,34.40
2024-01-11T15:18:00.699Z,45.78
2024-01-11T15:20:29.018Z,35.78
2024-01-11T15:22:57.347Z,38.50
2024-01-11T15:25:27.911Z,39.40
2024-01-11T15:27:56.365Z,40.67
2024-01-11T15:30:26.067Z,47.40
2024-01-11T15:32:57.842Z,41.17
2024-01-11T15:35:28.068Z,35.63
2024-01-11T15:37:56.753Z,50.13
2024-01-11T15:40:25.111Z,39.30
2024-01-11T15:42:53.175Z,51.00
2024-01-11T15:45:23.108Z,39.45
2024-01-11T15:47:52.959Z,53.72
2024-01-11T15:50:21.602Z,52.50
2024-01-11T15:52:49.823Z,39.65
2024-01-11T15:55:18.102Z,48.78
2024-01-11T15:57:46.268Z,41.05
2024-01-11T16:00:15.524Z,50.22
2024-01-11T16:02:44.395Z,45.67
2024-01-11T16:05:14.140Z,44.60
2024-01-11T16:07:42.443Z,50.70
2024-01-11T16:10:11.822Z,38.92
2024-01-11T16:12:40.393Z,53.72
2024-01-11T16:15:09.200Z,51.40
2024-01-11T16:17:37.621Z,45.80
2024-01-11T16:20:08.240Z,42.00
2024-01-11T16:22:38.019Z,54.80
2024-01-11T16:25:07.623Z,44.90
2024-01-11T16:27:35.744Z,47.25
2024-01-11T16:30:04.857Z,46.00
2024-01-11T16:32:34.281Z,46.33
2024-01-11T16:35:06.844Z,57.15
2024-01-11T16:37:35.230Z,48.80
2024-01-11T16:40:04.944Z,45.72
2024-01-11T16:42:33.830Z,47.75
2024-01-11T16:45:02.084Z,53.40
2024-01-11T16:47:37.052Z,51.95
2024-01-11T16:50:07.320Z,57.78
2024-01-11T16:52:35.442Z,55.38
2024-01-11T16:55:05.559Z,52.92
2024-01-11T16:57:33.759Z,58.58
2024-01-11T17:00:04.000Z,55.63
2024-01-11T17:02:32.792Z,51.55
2024-01-11T17:05:01.148Z,51.35
2024-01-11T17:07:29.738Z,54.67
2024-01-11T17:09:58.287Z,50.80
2024-01-11T17:12:28.105Z,63.42
2024-01-11T17:14:57.891Z,51.72
2024-01-11T17:17:28.013Z,55.58
2024-01-11T17:19:56.216Z,65.05
2024-01-11T17:22:24.369Z,61.78
2024-01-11T17:24:53.340Z,65.30
2024-01-11T17:27:21.474Z,57.97
2024-01-11T17:29:51.606Z,57.70
2024-01-11T17:32:19.830Z,56.90
2024-01-11T17:34:53.237Z,54.80
2024-01-11T17:37:22.144Z,60.65
2024-01-11T17:39:50.543Z,55.83
2024-01-11T17:42:22.185Z,64.38
2024-01-11T17:44:51.887Z,56.08
2024-01-11T17:47:20.503Z,54.88
2024-01-11T17:49:48.929Z,52.78
2024-01-11T17:52:17.604Z,46.25
2024-01-11T17:54:45.858Z,50.08
2024-01-11T17:57:13.975Z,62.33
2024-01-11T17:59:44.374Z,64.82
2024-01-11T18:02:14.162Z,57.33
2024-01-11T18:04:43.686Z,51.30
2024-01-11T18:07:12.190Z,54.40
2024-01-11T18:09:40.495Z,48.88
2024-01-11T18:12:09.176Z,58.47
2024-01-11T18:14:37.411Z,50.30
2024-01-11T18:17:06.013Z,49.65
2024-01-11T18:19:36.011Z,54.40
2024-01-11T18:22:04.478Z,52.50
2024-01-11T18:24:33.323Z,45.53
2024-01-11T18:27:01.399Z,62.42
2024-01-11T18:29:29.733Z,42.83
2024-01-11T18:31:58.096Z,43.17
2024-01-11T18:34:26.253Z,44.92
2024-01-11T18:36:55.770Z,62.47
2024-01-11T18:39:23.971Z,42.30
2024-01-11T18:41:52.849Z,49.08
2024-01-11T18:44:21.745Z,46.80
2024-01-11T18:46:49.762Z,47.95
2024-01-11T18:49:19.673Z,41.72
2024-01-11T18:51:48.080Z,48.35
2024-01-11T18:54:18.576Z,43.25
2024-01-11T18:56:47.366Z,48.90
2024-01-11T18:59:15.549Z,46.92
2024-01-11T19:01:49.008Z,49.05
2024-01-11T19:04:17.583Z,48.08
2024-01-11T19:06:46.362Z,49.28
2024-01-11T19:09:14.708Z,50.83
2024-01-11T19:11:44.503Z,57.42
2024-01-11T19:14:15.533Z,42.28
2024-01-11T19:16:43.733Z,48.67
2024-01-11T19:19:13.020Z,47.20
2024-01-11T19:21:41.215Z,37.38
2024-01-11T19:24:09.675Z,38.60
2024-01-11T19:26:41.752Z,47.85
2024-01-11T19:29:11.630Z,48.10
2024-01-11T19:31:39.740Z,55.40
2024-01-11T19:34:07.873Z,46.05
2024-01-11T19:36:39.936Z,50.35
2024-01-11T19:39:08.453Z,47.80
2024-01-11T19:41:36.766Z,44.75
2024-01-11T19:44:04.960Z,48.10
2024-01-11T19:46:34.409Z,40.40
2024-01-11T19:49:02.816Z,38.70
2024-01-11T19:51:32.945Z,44.03
2024-01-11T19:54:01.158Z,45.15
2024-01-11T19:56:31.956Z,41.95
2024-01-11T19:59:00.907Z,35.90
2024-01-11T20:01:29.333Z,46.53
2024-01-11T20:04:00.884Z,46.63
2024-01-11T20:06:29.262Z,48.53
2024-01-11T20:08:58.103Z,45.13
2024-01-11T20:11:26.916Z,47.67
2024-01-11T20:13:55.083Z,53.63
2024-01-11T20:16:23.711Z,52.67
2024-01-11T20:18:51.769Z,46.97
2024-01-11T20:21:21.995Z,44.38
2024-01-11T20:23:50.616Z,41.35
2024-01-11T20:26:21.180Z,54.72
2024-01-11T20:28:51.618Z,46.67
2024-01-11T20:31:19.721Z,46.40
2024-01-11T20:33:47.929Z,36.75
2024-01-11T20:36:16.382Z,43.15
2024-01-11T20:38:45.872Z,43.55
2024-01-11T20:41:15.493Z,40.15
2024-01-11T20:43:45.690Z,39.80
2024-01-11T20:46:14.736Z,40.15
2024-01-11T20:48:43.296Z,43.85
2024-01-11T20:51:14.219Z,37.90
2024-01-11T20:53:42.392Z,45.53
2024-01-11T20:56:12.623Z,44.75
2024-01-11T20:58:41.852Z,34.25
2024-01-11T21:01:10.063Z,40.42
2024-01-11T21:03:38.339Z,46.63
2024-01-11T21:06:07.355Z,37.85
2024-01-11T21:08:35.920Z,43.83
2024-01-11T21:11:04.072Z,40.13
2024-01-11T21:13:33.585Z,40.22
2024-01-11T21:16:01.683Z,41.47
2024-01-11T21:18:31.307Z,40.53
2024-01-11T21:21:00.409Z,41.50
2024-01-11T21:23:31.068Z,49.92
2024-01-11T21:25:59.549Z,40.50
2024-01-11T21:28:27.729Z,46.83
2024-01-11T21:30:57.392Z,42.88
2024-01-11T21:33:25.870Z,36.50
2024-01-11T21:35:54.339Z,33.17
2024-01-11T21:38:22.337Z,38.28
2024-01-11T21:40:52.822Z,39.88
2024-01-11T21:43:20.813Z,37.85
2024-01-11T21:45:49.007Z,37.00
2024-01-11T21:48:18.497Z,39.50
2024-01-11T21:50:46.689Z,39.05
2024-01-11T21:53:14.813Z,38.67
2024-01-11T21:55:42.984Z,40.47
2024-01-11T21:58:11.146Z,34.72
2024-01-11T22:00:40.062Z,34.72
2024-01-11T22:03:08.272Z,51.45
2024-01-11T22:05:38.374Z,41.13
2024-01-11T22:08:06.465Z,37.28
2024-01-11T22:10:34.734Z,37.00
2024-01-11T22:13:03.047Z,44.20
2024-01-11T22:15:31.332Z,38.75
2024-01-11T22:17:59.789Z,31.60
2024-01-11T22:20:28.370Z,31.55
2024-01-11T22:22:58.512Z,36.55
2024-01-11T22:25:27.304Z,37.38
2024-01-11T22:27:56.040Z,38.08
2024-01-11T22:30:24.432Z,38.85
2024-01-11T22:32:52.702Z,37.20
2024-01-11T22:35:21.410Z,44.50
2024-01-11T22:37:49.663Z,36.63
2024-01-11T22:40:19.150Z,32.78
2024-01-11T22:42:47.611Z,38.50
2024-01-11T22:45:15.785Z,36.85
2024-01-11T22:47:43.976Z,33.17
2024-01-11T22:50:12.126Z,32.92
2024-01-11T22:52:40.558Z,28.88
2024-01-11T22:55:08.968Z,35.80
2024-01-11T22:57:38.326Z,33.50
2024-01-11T23:00:21.908Z,26.75
2024-01-11T23:02:51.521Z,31.02
2024-01-11T23:05:20.628Z,29.50
2024-01-11T23:07:49.365Z,32.22
2024-01-11T23:10:18.207Z,29.42
2024-01-11T23:12:48.234Z,36.20
2024-01-11T23:15:16.344Z,21.63
2024-01-11T23:17:44.788Z,27.63
2024-01-11T23:20:13.876Z,24.15
2024-01-11T23:22:42.142Z,33.25
2024-01-11T23:25:10.758Z,30.90
2024-01-11T23:27:38.967Z,25.92
2024-01-11T23:30:10.558Z,19.38
2024-01-11T23:32:39.891Z,25.75
2024-01-11T23:35:08.358Z,25.98
2024-01-11T23:37:38.057Z,28.83
2024-01-11T23:40:08.701Z,27.88
2024-01-11T23:42:36.896Z,31.30
2024-01-11T23:45:09.125Z,21.42
2024-01-11T23:47:38.910Z,24.77
2024-01-11T23:50:08.580Z,24.13
2024-01-11T23:52:36.652Z,26.88
2024-01-11T23:55:04.958Z,24.08
2024-01-11T23:57:33.322Z,33.22
